Cold Bay, AK

7:04 AM AKDT on July 28, 2014 (GMT -0800)
Cold Bay (PACD) Elev 102 ft | 55.22 °N, 162.73 °W | Change Station

Current weather conditions updated 11 minutes ago

Overcast
Overcast
53 °F
Feels Like 53 °F
N
9
Wind Variable Wind from NW

Today is forecast to be Cooler than yesterday.

Today
High -- | Low -- °F
--% Chance of Precip.
Yesterday
High -- | Low -- °F
Precip. -- in
6:52 AM 11:01 PM
Waxing Crescent, 3% visible
Pressure 30.23 in
Visibility 10.0 miles
Clouds Overcast 1400 ft
Dew Point 48 °F
Humidity 83%
Rainfall 0.01 in
Snow Depth Not available.
UV 0 out of 12
Pollen Not available.
Air Quality Not available.
Flu Activity Not available.
METAR PACD 281453Z 32008KT 10SM OVC014 12/09 A3022 RMK AO2 SLP235 T01170089 50003

More Conditions Fewer Conditions

Pressure 30.23 in
Visibility 10.0 miles
Clouds Overcast 1400 ft
Dew Point 48 °F
Humidity 83%
Rainfall 0.01 in
Snow Depth Not available.
UV 0 out of 12
Pollen Not available.
Air Quality Not available.
Flu Activity Not available.
METAR PACD 281453Z 32008KT 10SM OVC014 12/09 A3022 RMK AO2 SLP235 T01170089 50003

More Conditions Fewer Conditions

10-Day Weather Forecast

Almanac

Astronomy

Jul. 28, 2014 Rise Set
Actual Time 6:52 AM AKDT 11:01 PM AKDT
Civil Twilight 6:04 AM AKDT 11:49 PM AKDT
Nautical Twilight 4:51 AM AKDT 1:00 AM AKDT
Astronomical Twilight 3:29 AM AKDT 2:24 AM AKDT
Moon 9:14 AM AKDT 11:14 PM AKDT
Length of Visible Light 17h 45m
Length of Day
16h 09m
Tomorrow will be 3m 35s shorter.
Waxing Crescent, 3% of the Moon is Illuminated
Today
Waxing Crescent
Aug 3
First Quarter
Aug 10
Full
Aug 17
Last Quarter
Aug 25
New

Today's Extremes

State Highs State Lows

Community

WunderPhotos

Upload Photos

1,738,370 photos uploaded!

Nearby

Snow Depth

Station Depth Elevation
Port Graham 0 in 300 ft
Mcneil Canyon 1 in 1320 ft
Nuka Glacier 0 in 1250 ft
MF Bradley River 209 in 2300 ft
Cooper Lake 22 in 1200 ft

Earthquake Activity

City Distance Mag. Time & Date
No recent earthquake activity has been reported nearby.
Minimum magnitude displayed is 2.5.

Coastal Water Temperatures

Place Temperature
No Stations Reporting

Nearby Weather Stations

Station Location Temp. Dew Point Humidity Wind Precip. Elev Updated Type
HADS RUSSELL C NR COLD BAY AK , Cold Bay, AK 50 °F - - North  at  - 0.00 in / hr 66 ft 6:00 AM AKDT MADIS

Show More Stations Show Fewer Stations